X  Close Metar Aviation Weather Data     PANC Ted Stevens Anchorage International Airport
Temperature
55°F Temperature
39°F Dewpoint
55% Humidity



Wind
8 MPH
13 KM/H
4 M/S
7 KTS



170°
S
Current Conditions

Partly Cloudy Partly Cloudy
Pressure 1019.3 (hPa) - 30.1 (inHg)
Visibility 10 (mile) - 16.1 (km)
Airport
Airport-code PANC

Location: Ted Stevens Anchorage International Airport
Distance: 8 (mi)

Metar:
PANC 080453Z 17007KT 10SM FEW065 FEW120 OVC250 13/04 A3010 RMK AO2 SLP192 T01330039

Time: 07-06-2024 20:53 AKDT